createdAt,value
2024-05-09T00:00:29.608Z,9.62
2024-05-09T00:03:11.355Z,9.58
2024-05-09T00:05:52.585Z,9.73
2024-05-09T00:08:26.246Z,9.62
2024-05-09T00:11:06.195Z,9.75
2024-05-09T00:14:06.022Z,9.72
2024-05-09T00:16:39.435Z,9.75
2024-05-09T00:19:19.101Z,9.61
2024-05-09T00:21:46.756Z,9.66
2024-05-09T00:24:25.328Z,9.61
2024-05-09T00:26:52.228Z,9.52
2024-05-09T00:29:29.745Z,9.45
2024-05-09T00:31:58.848Z,9.42
2024-05-09T00:34:42.028Z,9.51
2024-05-09T00:37:17.526Z,9.40
2024-05-09T00:39:54.996Z,9.27
2024-05-09T00:42:27.909Z,9.26
2024-05-09T00:44:58.393Z,9.27
2024-05-09T00:47:34.923Z,9.15
2024-05-09T00:50:03.241Z,8.99
2024-05-09T00:52:34.007Z,8.75
2024-05-09T00:55:05.780Z,9.00
2024-05-09T00:57:37.751Z,8.81
2024-05-09T01:00:26.611Z,8.77
2024-05-09T01:03:04.049Z,8.53
2024-05-09T01:05:36.114Z,8.48
2024-05-09T01:08:05.281Z,8.59
2024-05-09T01:10:37.892Z,8.46
2024-05-09T01:13:11.209Z,8.43
2024-05-09T01:15:45.922Z,7.99
2024-05-09T01:18:21.945Z,7.84
2024-05-09T01:20:50.943Z,7.88
2024-05-09T01:23:27.270Z,7.76
2024-05-09T01:26:01.218Z,7.86
2024-05-09T01:28:30.600Z,7.53
2024-05-09T01:31:05.031Z,7.53
2024-05-09T01:33:36.322Z,7.33
2024-05-09T01:36:10.062Z,7.28
2024-05-09T01:38:50.065Z,7.27
2024-05-09T01:41:20.074Z,7.26
2024-05-09T01:43:56.342Z,7.03
2024-05-09T01:49:07.699Z,6.98
2024-05-09T01:51:36.950Z,6.97
2024-05-09T01:54:09.648Z,6.83
2024-05-09T01:56:51.122Z,6.78
2024-05-09T01:59:21.589Z,6.82
2024-05-09T02:01:56.724Z,6.73
2024-05-09T02:04:32.424Z,6.73
2024-05-09T02:07:11.841Z,6.63
2024-05-09T02:09:46.340Z,6.65
2024-05-09T02:12:24.869Z,6.50
2024-05-09T02:15:05.930Z,6.67
2024-05-09T02:17:38.555Z,6.68
2024-05-09T02:20:18.982Z,6.69
2024-05-09T02:23:23.586Z,6.69
2024-05-09T02:26:10.140Z,6.63
2024-05-09T02:28:47.748Z,6.68
2024-05-09T02:31:21.623Z,6.65
2024-05-09T02:34:01.110Z,6.64
2024-05-09T02:36:54.567Z,6.54
2024-05-09T02:42:20.516Z,6.53
2024-05-09T02:45:02.030Z,6.56
2024-05-09T02:47:32.602Z,6.50
2024-05-09T02:50:07.764Z,6.68
2024-05-09T02:52:40.858Z,6.52
2024-05-09T02:55:16.695Z,6.52
2024-05-09T02:57:53.562Z,6.58
2024-05-09T03:00:34.648Z,6.72
2024-05-09T03:03:17.035Z,6.79
2024-05-09T03:06:17.383Z,6.92
2024-05-09T03:08:56.600Z,6.77
2024-05-09T03:11:28.092Z,7.15
2024-05-09T03:14:08.058Z,7.55
2024-05-09T03:16:52.517Z,7.89
2024-05-09T03:19:50.266Z,7.99
2024-05-09T03:22:20.429Z,7.84
2024-05-09T03:24:56.029Z,7.37
2024-05-09T03:30:30.194Z,7.65
2024-05-09T03:33:29.046Z,7.95
2024-05-09T03:38:54.029Z,8.46
2024-05-09T03:41:26.793Z,7.68
2024-05-09T03:43:57.135Z,7.25
2024-05-09T03:46:29.196Z,7.36
2024-05-09T03:48:59.791Z,7.30
2024-05-09T03:51:36.659Z,7.56
2024-05-09T03:54:10.773Z,7.76
2024-05-09T03:56:52.796Z,8.43
2024-05-09T03:59:27.772Z,8.16
2024-05-09T04:01:59.517Z,7.94
2024-05-09T04:04:31.272Z,7.58
2024-05-09T04:07:08.571Z,7.51
2024-05-09T04:09:37.472Z,7.55
2024-05-09T04:12:18.438Z,7.68
2024-05-09T04:14:46.230Z,8.34
2024-05-09T04:17:20.745Z,8.63
2024-05-09T04:20:00.309Z,8.99
2024-05-09T04:22:30.701Z,9.63
2024-05-09T04:25:06.748Z,9.22
2024-05-09T04:27:37.273Z,9.52
2024-05-09T04:30:09.931Z,9.21
2024-05-09T04:32:45.857Z,9.13
2024-05-09T04:35:22.541Z,9.06
2024-05-09T04:40:36.262Z,8.96
2024-05-09T04:43:07.118Z,8.89
2024-05-09T04:45:43.698Z,8.93
2024-05-09T04:51:12.928Z,9.29
2024-05-09T04:53:45.121Z,9.39
2024-05-09T04:56:20.033Z,8.98
2024-05-09T04:58:55.598Z,8.96
2024-05-09T05:01:29.349Z,8.92
2024-05-09T05:04:08.811Z,9.32
2024-05-09T05:06:42.083Z,9.17
2024-05-09T05:09:17.984Z,9.60
2024-05-09T05:11:48.200Z,9.58
2024-05-09T05:14:26.578Z,9.20
2024-05-09T05:16:57.291Z,9.22
2024-05-09T05:19:29.471Z,9.33
2024-05-09T05:21:58.377Z,9.30
2024-05-09T05:24:31.859Z,9.77
2024-05-09T05:27:01.770Z,10.09
2024-05-09T05:29:41.706Z,9.59
2024-05-09T05:32:18.685Z,8.98
2024-05-09T05:35:00.224Z,8.44
2024-05-09T05:37:47.861Z,8.34
2024-05-09T05:40:27.595Z,8.32
2024-05-09T05:43:13.025Z,8.48
2024-05-09T05:45:45.333Z,8.55
2024-05-09T05:48:23.187Z,8.92
2024-05-09T05:56:29.348Z,8.27
2024-05-09T05:59:15.911Z,8.53
2024-05-09T06:01:49.206Z,8.81
2024-05-09T06:04:21.592Z,9.09
2024-05-09T06:06:52.780Z,9.37
2024-05-09T06:09:23.234Z,9.42
2024-05-09T06:11:56.446Z,9.20
2024-05-09T06:14:29.537Z,9.01
2024-05-09T06:20:07.403Z,9.43
2024-05-09T06:22:46.223Z,9.54
2024-05-09T06:25:14.517Z,9.48
2024-05-09T06:27:47.512Z,9.31
2024-05-09T06:30:52.483Z,9.22
2024-05-09T06:33:23.964Z,9.61
2024-05-09T06:35:59.757Z,10.09
2024-05-09T06:38:38.442Z,10.22
2024-05-09T06:41:19.709Z,10.08
2024-05-09T06:43:48.417Z,10.51
2024-05-09T06:46:16.857Z,10.33
2024-05-09T06:48:50.907Z,10.11
2024-05-09T06:51:32.822Z,10.12
2024-05-09T06:54:05.586Z,9.82
2024-05-09T06:56:40.127Z,10.26
2024-05-09T06:59:21.014Z,10.05
2024-05-09T07:01:55.442Z,10.04
2024-05-09T07:07:09.717Z,9.65
2024-05-09T07:09:44.527Z,9.66
2024-05-09T07:12:11.797Z,9.94
2024-05-09T07:14:49.913Z,10.25
2024-05-09T07:17:20.691Z,10.13
2024-05-09T07:20:27.601Z,9.84
2024-05-09T07:26:04.695Z,10.33
2024-05-09T07:28:40.765Z,10.38
2024-05-09T07:31:13.485Z,10.99
2024-05-09T07:33:47.026Z,11.09
2024-05-09T07:36:16.902Z,10.91
2024-05-09T07:38:47.447Z,10.31
2024-05-09T07:44:02.803Z,10.24
2024-05-09T07:53:29.968Z,10.79
2024-05-09T07:55:05.121Z,10.89
2024-05-09T07:57:44.893Z,11.37
2024-05-09T08:00:17.354Z,11.31
2024-05-09T08:02:57.377Z,11.51
2024-05-09T08:08:36.041Z,10.53
2024-05-09T08:11:11.274Z,10.66
2024-05-09T08:13:46.079Z,10.67
2024-05-09T08:22:19.905Z,10.79
2024-05-09T08:30:42.493Z,10.74
2024-05-09T08:36:04.934Z,11.70
2024-05-09T08:38:45.409Z,11.17
2024-05-09T08:44:05.308Z,11.64
2024-05-09T08:46:36.435Z,11.79
2024-05-09T08:49:05.743Z,12.00
2024-05-09T08:51:38.196Z,12.07
2024-05-09T08:54:12.749Z,11.59
2024-05-09T08:56:50.751Z,11.26
2024-05-09T08:59:48.442Z,11.03
2024-05-09T09:02:29.108Z,11.69
2024-05-09T09:05:20.909Z,12.05
2024-05-09T09:07:52.985Z,11.68
2024-05-09T09:10:31.919Z,12.06
2024-05-09T09:13:32.455Z,12.25
2024-05-09T09:21:42.269Z,12.44
2024-05-09T09:24:14.707Z,12.56
2024-05-09T09:26:45.688Z,11.18
2024-05-09T09:29:23.993Z,11.24
2024-05-09T09:35:15.175Z,12.31
2024-05-09T09:38:00.410Z,12.52
2024-05-09T09:43:41.911Z,11.92
2024-05-09T09:46:17.233Z,12.31
2024-05-09T09:48:47.133Z,12.19
2024-05-09T09:51:28.335Z,12.17
2024-05-09T09:56:49.926Z,11.93
2024-05-09T09:59:25.328Z,12.49
2024-05-09T10:02:02.837Z,12.47
2024-05-09T10:07:40.013Z,12.39
2024-05-09T10:13:21.285Z,12.37
2024-05-09T10:21:22.554Z,12.39
2024-05-09T10:26:58.963Z,11.60
2024-05-09T10:32:25.339Z,11.79
2024-05-09T10:35:18.494Z,12.17
2024-05-09T10:40:32.334Z,12.28
2024-05-09T10:43:06.971Z,12.27
2024-05-09T10:45:39.549Z,12.36
2024-05-09T10:48:13.640Z,12.49
2024-05-09T10:50:49.494Z,13.01
2024-05-09T10:53:25.860Z,13.00
2024-05-09T10:56:08.111Z,12.69
2024-05-09T10:58:55.997Z,13.18
2024-05-09T11:04:12.339Z,13.76
2024-05-09T11:07:05.387Z,13.49
2024-05-09T11:09:38.327Z,13.19
2024-05-09T11:12:30.430Z,12.82
2024-05-09T11:18:09.141Z,12.61
2024-05-09T11:20:43.602Z,13.09
2024-05-09T11:23:19.189Z,13.07
2024-05-09T11:25:59.744Z,12.64
2024-05-09T11:28:35.361Z,12.79
2024-05-09T11:31:16.458Z,13.33
2024-05-09T11:33:47.764Z,12.86
2024-05-09T11:36:15.513Z,12.59
2024-05-09T11:38:44.608Z,12.53
2024-05-09T11:41:20.492Z,13.18
2024-05-09T11:43:47.781Z,12.74
2024-05-09T11:55:04.474Z,12.41
2024-05-09T11:57:36.141Z,12.72
2024-05-09T12:00:07.344Z,12.86
2024-05-09T12:02:43.177Z,12.45
2024-05-09T12:05:12.659Z,12.47
2024-05-09T12:08:08.450Z,12.83
2024-05-09T12:10:45.928Z,13.06
2024-05-09T12:13:20.097Z,12.78
2024-05-09T12:15:54.050Z,13.25
2024-05-09T12:18:25.366Z,13.05
2024-05-09T12:20:56.296Z,13.57
2024-05-09T12:23:25.321Z,13.40
2024-05-09T12:25:58.086Z,13.26
2024-05-09T12:31:20.816Z,12.76
2024-05-09T12:33:50.448Z,12.52
2024-05-09T12:36:36.718Z,12.11
2024-05-09T12:48:23.421Z,12.80
2024-05-09T12:56:39.970Z,13.37
2024-05-09T12:59:11.392Z,13.23
2024-05-09T13:01:41.805Z,13.02
2024-05-09T13:07:00.247Z,13.43
2024-05-09T13:10:04.459Z,13.19
2024-05-09T13:15:29.616Z,12.98
2024-05-09T13:18:07.931Z,13.15
2024-05-09T13:23:27.971Z,14.02
2024-05-09T13:26:00.169Z,13.11
2024-05-09T13:28:33.227Z,13.54
2024-05-09T13:34:00.961Z,13.48
2024-05-09T13:42:28.662Z,13.52
2024-05-09T13:45:03.297Z,13.64
2024-05-09T13:50:27.565Z,13.35
2024-05-09T13:53:07.238Z,13.75
2024-05-09T13:55:45.198Z,14.09
2024-05-09T13:58:15.333Z,13.93
2024-05-09T14:00:53.203Z,14.27
2024-05-09T14:03:31.343Z,14.15
2024-05-09T14:06:13.113Z,14.35
2024-05-09T14:08:52.403Z,14.35
2024-05-09T14:11:22.604Z,13.69
2024-05-09T14:13:52.084Z,13.68
2024-05-09T14:16:26.871Z,14.09
2024-05-09T14:18:58.946Z,14.32
2024-05-09T14:21:39.976Z,14.50
2024-05-09T14:24:12.510Z,13.92
2024-05-09T14:26:48.124Z,13.54
2024-05-09T14:29:22.731Z,13.58
2024-05-09T14:31:51.282Z,13.68
2024-05-09T14:34:18.926Z,13.96
2024-05-09T14:36:55.194Z,13.51
2024-05-09T14:39:24.222Z,13.38
2024-05-09T14:44:51.358Z,13.38
2024-05-09T14:56:52.902Z,13.88
2024-05-09T14:59:21.658Z,13.76
2024-05-09T15:02:09.996Z,14.02
2024-05-09T15:04:37.186Z,14.20
2024-05-09T15:07:04.642Z,15.23
2024-05-09T15:09:41.943Z,15.38
2024-05-09T15:12:09.907Z,16.62
2024-05-09T15:14:37.329Z,16.90
2024-05-09T15:17:09.741Z,16.30
2024-05-09T15:19:38.484Z,16.24
2024-05-09T15:22:06.306Z,15.82
2024-05-09T15:24:34.327Z,16.18
2024-05-09T15:27:01.343Z,15.98
2024-05-09T15:29:29.791Z,15.95
2024-05-09T15:31:56.968Z,16.28
2024-05-09T15:34:23.991Z,16.33
2024-05-09T15:36:54.060Z,15.22
2024-05-09T15:39:21.104Z,15.61
2024-05-09T15:41:48.362Z,15.03
2024-05-09T15:44:15.593Z,15.13
2024-05-09T15:46:42.727Z,14.97
2024-05-09T15:49:10.130Z,14.95
2024-05-09T15:51:37.210Z,15.77
2024-05-09T15:54:04.502Z,16.45
2024-05-09T15:56:31.558Z,17.11
2024-05-09T15:59:00.120Z,16.39
2024-05-09T16:01:27.013Z,15.14
2024-05-09T16:06:37.132Z,14.81
2024-05-09T16:22:53.536Z,15.68
2024-05-09T16:34:41.223Z,15.39
2024-05-09T16:37:10.621Z,15.02
2024-05-09T16:39:38.135Z,15.71
2024-05-09T16:42:05.577Z,15.07
2024-05-09T16:44:35.594Z,14.90
2024-05-09T16:47:02.783Z,14.17
2024-05-09T16:49:30.133Z,14.21
2024-05-09T16:51:57.164Z,14.19
2024-05-09T16:54:27.273Z,14.60
2024-05-09T16:56:54.249Z,14.07
2024-05-09T16:59:22.688Z,14.95
2024-05-09T17:01:52.018Z,15.00
2024-05-09T17:04:19.429Z,15.43
2024-05-09T17:06:46.404Z,14.98
2024-05-09T17:09:15.665Z,14.10
2024-05-09T17:11:47.433Z,13.94
2024-05-09T17:14:14.730Z,13.61
2024-05-09T17:16:41.645Z,13.26
2024-05-09T17:19:09.485Z,12.90
2024-05-09T17:21:38.648Z,12.30
2024-05-09T17:24:05.914Z,12.19
2024-05-09T17:26:33.460Z,12.15
2024-05-09T17:29:00.619Z,11.71
2024-05-09T17:31:27.726Z,11.85
2024-05-09T17:33:54.999Z,11.91
2024-05-09T17:36:22.357Z,11.56
2024-05-09T17:38:49.330Z,11.22
2024-05-09T17:41:16.230Z,11.41
2024-05-09T17:43:43.153Z,11.36
2024-05-09T17:46:10.300Z,11.10
2024-05-09T17:48:37.329Z,11.20
2024-05-09T17:51:04.823Z,11.28
2024-05-09T17:53:31.678Z,10.77
2024-05-09T17:56:00.517Z,11.35
2024-05-09T17:58:27.650Z,11.39
2024-05-09T18:00:54.889Z,11.18
2024-05-09T18:03:23.489Z,11.04
2024-05-09T18:05:50.872Z,10.78
2024-05-09T18:08:17.836Z,11.08
2024-05-09T18:10:44.975Z,11.29
2024-05-09T18:13:13.231Z,11.27
2024-05-09T18:15:40.900Z,11.26
2024-05-09T18:18:09.176Z,11.17
2024-05-09T18:20:42.668Z,10.95
2024-05-09T18:23:14.629Z,11.13
2024-05-09T18:25:43.030Z,11.09
2024-05-09T18:28:10.256Z,11.09
2024-05-09T18:30:37.826Z,11.11
2024-05-09T18:33:07.188Z,10.82
2024-05-09T18:35:35.624Z,10.69
2024-05-09T18:38:03.216Z,10.63
2024-05-09T18:40:34.607Z,10.53
2024-05-09T18:43:05.665Z,10.84
2024-05-09T18:45:34.133Z,10.76
2024-05-09T18:48:01.452Z,10.43
2024-05-09T18:50:34.943Z,10.48
2024-05-09T18:53:08.987Z,10.35
2024-05-09T18:55:36.328Z,10.16
2024-05-09T18:58:04.616Z,10.18
2024-05-09T19:00:36.097Z,10.37
2024-05-09T19:03:11.749Z,9.65
2024-05-09T19:05:41.797Z,10.13
2024-05-09T19:08:09.822Z,10.08
2024-05-09T19:10:37.519Z,10.06
2024-05-09T19:13:09.073Z,10.06
2024-05-09T19:15:39.910Z,10.23
2024-05-09T19:18:07.713Z,10.13
2024-05-09T19:20:36.383Z,10.45
2024-05-09T19:23:05.996Z,10.45
2024-05-09T19:25:33.827Z,10.38
2024-05-09T19:28:01.337Z,10.35
2024-05-09T19:30:37.582Z,10.21
2024-05-09T19:33:08.936Z,10.39
2024-05-09T19:35:36.237Z,10.31
2024-05-09T19:38:03.394Z,10.25
2024-05-09T19:40:32.932Z,10.21
2024-05-09T19:43:02.855Z,10.12
2024-05-09T19:45:30.714Z,9.83
2024-05-09T19:47:57.865Z,10.01
2024-05-09T19:50:36.869Z,10.06
2024-05-09T19:53:10.092Z,9.92
2024-05-09T19:55:37.457Z,10.10
2024-05-09T19:58:07.253Z,10.07
2024-05-09T20:00:37.426Z,9.94
2024-05-09T20:03:07.027Z,9.90
2024-05-09T20:05:34.485Z,10.16
2024-05-09T20:08:01.583Z,10.05
2024-05-09T20:10:32.595Z,10.01
2024-05-09T20:13:02.467Z,9.79
2024-05-09T20:15:29.637Z,9.85
2024-05-09T20:17:57.182Z,9.61
2024-05-09T20:20:33.301Z,9.46
2024-05-09T20:23:06.353Z,9.29
2024-05-09T20:25:33.461Z,9.02
2024-05-09T20:28:00.594Z,8.95
2024-05-09T20:30:32.207Z,8.51
2024-05-09T20:33:02.821Z,8.52
2024-05-09T20:35:32.444Z,8.49
2024-05-09T20:37:59.803Z,8.80
2024-05-09T20:40:32.668Z,8.67
2024-05-09T20:43:03.468Z,8.66
2024-05-09T20:45:30.623Z,8.44
2024-05-09T20:47:58.247Z,8.63
2024-05-09T20:50:35.726Z,8.84
2024-05-09T20:53:08.903Z,8.48
2024-05-09T20:55:36.210Z,8.39
2024-05-09T20:58:03.226Z,8.67
2024-05-09T21:00:38.774Z,8.37
2024-05-09T21:03:09.475Z,8.49
2024-05-09T21:05:36.705Z,8.20
2024-05-09T21:08:04.076Z,7.99
2024-05-09T21:10:33.367Z,8.00
2024-05-09T21:13:03.008Z,8.06
2024-05-09T21:15:31.087Z,7.88
2024-05-09T21:17:58.298Z,7.72
2024-05-09T21:20:31.398Z,7.83
2024-05-09T21:22:59.807Z,7.78
2024-05-09T21:25:27.129Z,7.41
2024-05-09T21:27:54.197Z,7.79
2024-05-09T21:30:31.715Z,7.65
2024-05-09T21:33:12.694Z,7.70
2024-05-09T21:35:41.776Z,7.65
2024-05-09T21:38:08.895Z,7.72
2024-05-09T21:40:37.369Z,7.69
2024-05-09T21:43:06.595Z,7.48
2024-05-09T21:45:34.381Z,7.49
2024-05-09T21:48:03.910Z,7.51
2024-05-09T21:50:37.136Z,7.41
2024-05-09T21:53:08.020Z,7.40
2024-05-09T21:55:35.070Z,7.44
2024-05-09T21:58:02.485Z,7.53
2024-05-09T22:00:35.855Z,7.39
2024-05-09T22:03:05.534Z,7.45
2024-05-09T22:05:32.852Z,6.96
2024-05-09T22:08:00.041Z,7.33
2024-05-09T22:10:33.252Z,7.44
2024-05-09T22:13:02.635Z,7.38
2024-05-09T22:15:29.550Z,7.32
2024-05-09T22:17:57.549Z,7.27
2024-05-09T22:20:34.067Z,7.24
2024-05-09T22:23:04.904Z,7.23
2024-05-09T22:25:32.969Z,7.30
2024-05-09T22:28:01.716Z,7.26
2024-05-09T22:30:35.796Z,7.10
2024-05-09T22:33:10.962Z,7.07
2024-05-09T22:35:39.556Z,7.07
2024-05-09T22:38:06.581Z,6.96
2024-05-09T22:40:43.225Z,7.03
2024-05-09T22:43:23.877Z,7.08
2024-05-09T22:45:55.146Z,7.03
2024-05-09T22:48:23.804Z,6.91
2024-05-09T22:50:51.479Z,7.01
2024-05-09T22:53:18.502Z,6.93
2024-05-09T22:55:46.632Z,6.83
2024-05-09T23:01:02.588Z,6.82
2024-05-09T23:08:58.262Z,6.67
2024-05-09T23:11:30.823Z,6.69
2024-05-09T23:14:07.690Z,6.55
2024-05-09T23:16:54.421Z,6.65
2024-05-09T23:19:26.468Z,6.63
2024-05-09T23:22:24.405Z,6.67
2024-05-09T23:24:58.930Z,6.49
2024-05-09T23:27:32.573Z,6.54
2024-05-09T23:30:12.072Z,6.37
2024-05-09T23:35:31.079Z,6.57
2024-05-09T23:38:02.333Z,6.38
2024-05-09T23:40:48.908Z,6.44
2024-05-09T23:43:19.896Z,6.51
2024-05-09T23:45:52.238Z,6.54
2024-05-09T23:48:34.978Z,6.40
2024-05-09T23:51:23.589Z,6.47
2024-05-09T23:53:53.086Z,6.50
2024-05-09T23:56:29.443Z,6.45
2024-05-09T23:59:06.696Z,6.38
